Time;durP1;ratioP1;P1;durP2;ratioP2;P2;SDS_P1;SDS_P2;PMS_P1;PMS_P2;Temp;Humidity;BMP_temperature;BMP_pressure;BME280_temperature;BME280_humidity;BME280_pressure;Samples;Min_cycle;Max_cycle;Signal;HPM_P1;HPM_P2
2022/10/09 00:01:07;;;;;;;14.40;9.10;;;8.90;74.30;;;;;;5002285;28;46693;-67
2022/10/09 00:03:34;;;;;;;16.97;9.30;;;8.90;74.50;;;;;;5003073;28;47276;-69
2022/10/09 00:06:00;;;;;;;13.10;8.60;;;8.90;74.50;;;;;;5000442;28;46299;-68
2022/10/09 00:08:26;;;;;;;20.07;9.30;;;8.90;74.60;;;;;;5003328;28;46446;-68
2022/10/09 00:10:51;;;;;;;19.20;9.70;;;8.80;74.40;;;;;;5004274;28;46429;-69
2022/10/09 00:13:17;;;;;;;14.70;9.30;;;8.80;74.40;;;;;;5003507;28;47015;-68
2022/10/09 00:15:44;;;;;;;17.10;8.90;;;8.80;74.30;;;;;;5002488;28;46351;-67
2022/10/09 00:18:13;;;;;;;16.10;8.33;;;8.80;74.30;;;;;;5004543;28;46520;-68
2022/10/09 00:20:41;;;;;;;16.13;8.80;;;8.70;74.30;;;;;;5004624;28;46651;-68
2022/10/09 00:23:07;;;;;;;15.40;8.30;;;8.70;74.10;;;;;;5001266;28;46412;-68
2022/10/09 00:25:34;;;;;;;17.47;9.30;;;8.70;74.20;;;;;;5003583;28;46639;-67
2022/10/09 00:28:00;;;;;;;19.10;9.37;;;8.70;74.30;;;;;;5005312;28;46458;-68
2022/10/09 00:30:26;;;;;;;22.20;9.70;;;8.60;74.10;;;;;;5001200;28;46456;-67
2022/10/09 00:32:52;;;;;;;16.93;8.90;;;8.60;74.20;;;;;;5003308;28;46377;-67
2022/10/09 00:35:17;;;;;;;20.13;9.00;;;8.60;74.30;;;;;;5002764;28;46383;-68
2022/10/09 00:37:43;;;;;;;17.20;8.20;;;8.60;74.30;;;;;;5003059;28;46330;-68
2022/10/09 00:40:09;;;;;;;21.70;9.00;;;8.60;74.40;;;;;;5003709;28;46423;-68
2022/10/09 00:42:34;;;;;;;22.27;9.50;;;8.60;74.40;;;;;;5003014;28;46544;-67
2022/10/09 00:45:01;;;;;;;21.90;10.10;;;8.60;74.60;;;;;;4999907;28;46354;-67
2022/10/09 00:47:31;;;;;;;25.03;10.00;;;8.50;74.80;;;;;;5002717;28;46386;-67
2022/10/09 00:50:29;;;;;;;17.23;8.17;;;8.60;74.90;;;;;;5002329;28;46564;-68
2022/10/09 00:52:58;;;;;;;23.67;8.70;;;8.50;75.00;;;;;;5001875;28;46437;-68
2022/10/09 00:55:27;;;;;;;22.80;8.83;;;8.50;75.00;;;;;;5002829;28;46235;-67
2022/10/09 00:57:54;;;;;;;22.20;9.43;;;8.50;75.00;;;;;;5001524;28;46413;-68
2022/10/09 01:00:21;;;;;;;18.50;9.67;;;8.50;75.00;;;;;;5002573;28;46422;-68
2022/10/09 01:02:46;;;;;;;19.63;9.20;;;8.50;75.00;;;;;;5003504;28;46620;-68
2022/10/09 01:05:13;;;;;;;20.63;9.20;;;8.60;75.00;;;;;;5003436;28;46397;-68
2022/10/09 01:07:47;;;;;;;17.53;8.40;;;8.60;75.00;;;;;;5004106;28;45744;-68
2022/10/09 01:10:31;;;;;;;16.83;9.00;;;8.50;75.10;;;;;;4999391;28;46569;-69
2022/10/09 01:13:19;;;;;;;17.80;9.47;;;8.50;75.20;;;;;;5016109;28;48436;-67
2022/10/09 01:16:03;;;;;;;16.73;7.83;;;8.50;75.30;;;;;;5000059;28;46580;-68
2022/10/09 01:18:28;;;;;;;17.13;7.80;;;8.50;75.40;;;;;;5002836;28;45820;-67
2022/10/09 01:21:11;;;;;;;15.23;8.50;;;8.50;75.60;;;;;;5002487;28;46480;-68
2022/10/09 01:24:11;;;;;;;20.77;7.00;;;8.50;75.80;;;;;;5001784;28;46554;-68
2022/10/09 01:27:03;;;;;;;16.50;7.73;;;8.50;75.70;;;;;;5002130;28;46410;-68
2022/10/09 01:29:41;;;;;;;14.23;7.53;;;8.50;75.80;;;;;;5000482;28;46369;-68
2022/10/09 01:32:10;;;;;;;10.87;7.57;;;8.50;76.10;;;;;;5001977;28;46452;-68
2022/10/09 01:34:37;;;;;;;16.97;7.03;;;8.40;76.10;;;;;;5000391;28;46549;-68
2022/10/09 01:37:04;;;;;;;15.93;7.43;;;8.40;76.50;;;;;;5001486;28;46397;-68
2022/10/09 01:39:32;;;;;;;27.87;8.60;;;8.40;76.50;;;;;;5001443;28;46524;-67
2022/10/09 01:41:58;;;;;;;115.07;59.80;;;8.30;76.40;;;;;;5002546;28;46446;-68
2022/10/09 01:44:29;;;;;;;54.47;26.97;;;8.40;76.50;;;;;;4999432;28;46518;-68
2022/10/09 01:46:56;;;;;;;27.60;12.97;;;8.40;76.50;;;;;;5000242;28;46409;-68
2022/10/09 01:49:53;;;;;;;19.93;8.70;;;8.30;76.50;;;;;;5001491;28;46386;-68
2022/10/09 01:52:48;;;;;;;17.60;8.40;;;8.40;76.50;;;;;;4990841;28;46508;-68
2022/10/09 01:55:19;;;;;;;14.83;6.90;;;8.30;76.40;;;;;;4996393;28;46264;-67
2022/10/09 01:57:51;;;;;;;15.80;7.10;;;8.40;76.50;;;;;;5000831;28;46493;-69
2022/10/09 02:00:17;;;;;;;17.90;7.77;;;8.30;76.40;;;;;;5000139;28;46363;-67
2022/10/09 02:02:43;;;;;;;15.07;7.33;;;8.30;76.40;;;;;;5000670;28;46367;-68
2022/10/09 02:05:14;;;;;;;13.47;7.43;;;8.30;76.40;;;;;;4997935;28;46647;-68
2022/10/09 02:07:39;;;;;;;13.53;7.27;;;8.30;76.50;;;;;;5001703;28;46279;-68
2022/10/09 02:10:07;;;;;;;24.13;7.43;;;8.40;76.50;;;;;;4999414;28;46347;-68
2022/10/09 02:12:37;;;;;;;17.60;7.37;;;8.40;76.50;;;;;;5000493;28;46547;-68
2022/10/09 02:15:03;;;;;;;16.70;7.20;;;8.30;76.50;;;;;;5000584;28;47400;-68
2022/10/09 02:17:32;;;;;;;15.23;7.20;;;8.40;76.60;;;;;;5000072;28;46440;-68
2022/10/09 02:20:04;;;;;;;15.00;6.73;;;8.40;76.60;;;;;;5001767;28;46467;-69
2022/10/09 02:22:31;;;;;;;18.83;7.17;;;8.40;76.50;;;;;;4999428;28;45839;-68
2022/10/09 02:24:58;;;;;;;21.00;7.10;;;8.40;76.50;;;;;;4998270;28;46363;-68
2022/10/09 02:27:25;;;;;;;16.17;7.30;;;8.40;76.50;;;;;;5000607;28;46287;-67
2022/10/09 02:29:52;;;;;;;18.67;7.60;;;8.40;76.50;;;;;;5001011;28;46413;-68
2022/10/09 02:32:17;;;;;;;20.17;6.30;;;8.30;76.40;;;;;;4999089;28;46439;-68
2022/10/09 02:34:43;;;;;;;16.73;6.43;;;8.30;76.50;;;;;;4998151;28;47126;-68
2022/10/09 02:37:09;;;;;;;19.37;6.17;;;8.30;76.50;;;;;;5001728;28;46456;-68
2022/10/09 02:39:35;;;;;;;14.80;6.70;;;8.30;76.40;;;;;;5000377;28;46295;-67
2022/10/09 02:42:01;;;;;;;19.40;7.10;;;8.30;76.50;;;;;;5000726;28;46384;-69
2022/10/09 02:44:26;;;;;;;14.63;6.97;;;8.30;77.00;;;;;;4998148;28;48521;-68
2022/10/09 02:46:52;;;;;;;20.47;7.00;;;8.20;76.40;;;;;;5001365;28;46446;-68
2022/10/09 02:49:18;;;;;;;11.80;6.80;;;8.20;76.40;;;;;;5001576;28;45808;-68
2022/10/09 02:51:43;;;;;;;13.00;7.30;;;8.20;76.40;;;;;;5000669;28;46643;-69
2022/10/09 02:54:09;;;;;;;19.83;6.63;;;8.20;76.40;;;;;;5000469;28;46692;-68
2022/10/09 02:56:35;;;;;;;17.80;6.47;;;8.20;76.40;;;;;;5015434;28;46410;-68
2022/10/09 02:59:01;;;;;;;17.80;8.27;;;8.10;76.40;;;;;;5004782;28;46404;-68
2022/10/09 03:01:26;;;;;;;19.00;8.57;;;8.10;76.40;;;;;;5002086;28;45838;-68
2022/10/09 03:03:52;;;;;;;21.30;8.50;;;8.10;76.30;;;;;;5001780;28;47238;-68
2022/10/09 03:06:21;;;;;;;18.33;8.20;;;8.20;76.40;;;;;;4999378;28;46496;-68
2022/10/09 03:08:48;;;;;;;15.97;8.00;;;8.20;76.40;;;;;;5001360;28;46358;-68
2022/10/09 03:11:15;;;;;;;13.13;7.47;;;8.20;76.40;;;;;;5000486;28;47180;-68
2022/10/09 03:13:41;;;;;;;23.40;7.90;;;8.10;76.40;;;;;;5000220;28;47106;-69
2022/10/09 03:16:13;;;;;;;18.90;7.50;;;8.10;76.40;;;;;;4999875;28;46433;-68
2022/10/09 03:18:39;;;;;;;17.47;8.77;;;8.10;76.40;;;;;;5001515;28;46371;-67
2022/10/09 03:21:06;;;;;;;17.60;7.70;;;8.00;76.30;;;;;;5000029;28;46453;-68
2022/10/09 03:23:32;;;;;;;18.30;8.60;;;8.10;76.30;;;;;;5001039;28;46279;-67
2022/10/09 03:25:59;;;;;;;18.80;8.00;;;8.00;76.20;;;;;;4998832;28;46443;-68
2022/10/09 03:28:25;;;;;;;24.70;9.63;;;8.10;76.40;;;;;;4998908;28;46365;-68
2022/10/09 03:30:52;;;;;;;21.00;8.50;;;8.10;76.30;;;;;;4999606;28;46735;-67
2022/10/09 03:33:18;;;;;;;21.90;8.90;;;8.00;76.30;;;;;;5000081;28;46924;-68
2022/10/09 03:35:45;;;;;;;16.90;9.03;;;8.00;76.30;;;;;;5000168;28;46422;-67
2022/10/09 03:38:11;;;;;;;20.97;10.77;;;8.00;76.40;;;;;;5002094;28;46395;-67
2022/10/09 03:40:37;;;;;;;25.77;9.10;;;8.00;76.40;;;;;;4997887;28;47018;-67
2022/10/09 03:43:02;;;;;;;24.90;9.60;;;8.00;76.80;;;;;;5000866;28;47370;-68
2022/10/09 03:45:28;;;;;;;16.87;9.50;;;8.00;77.00;;;;;;4996952;28;46458;-67
2022/10/09 03:47:53;;;;;;;20.87;10.63;;;8.00;77.40;;;;;;5000400;28;46337;-67
2022/10/09 03:50:19;;;;;;;24.17;10.13;;;8.00;77.40;;;;;;4998626;28;46580;-68
2022/10/09 03:52:45;;;;;;;22.53;9.90;;;8.00;77.50;;;;;;5000593;28;46999;-67
2022/10/09 03:55:10;;;;;;;22.33;10.00;;;8.10;77.60;;;;;;4994835;28;46287;-67
2022/10/09 03:57:36;;;;;;;23.27;10.30;;;8.00;77.70;;;;;;5001467;28;46350;-67
2022/10/09 04:00:03;;;;;;;16.40;9.03;;;8.00;77.50;;;;;;4999366;28;46225;-68
2022/10/09 04:02:30;;;;;;;23.10;10.37;;;8.00;77.60;;;;;;4999610;28;46362;-68
2022/10/09 04:04:55;;;;;;;22.80;9.90;;;8.00;77.60;;;;;;4998274;28;46497;-67
2022/10/09 04:07:21;;;;;;;26.93;10.53;;;8.00;77.70;;;;;;5000758;28;46454;-67
2022/10/09 04:09:46;;;;;;;28.73;9.93;;;8.00;77.60;;;;;;4999773;28;46022;-67
2022/10/09 04:12:12;;;;;;;21.50;10.50;;;8.00;77.60;;;;;;5000260;28;46409;-67
2022/10/09 04:14:37;;;;;;;21.40;10.20;;;8.00;77.60;;;;;;5001493;28;46457;-67
2022/10/09 04:17:03;;;;;;;19.37;10.00;;;8.00;77.60;;;;;;4999978;28;46468;-68
2022/10/09 04:19:28;;;;;;;28.57;11.20;;;8.00;77.70;;;;;;5001657;28;46538;-68
2022/10/09 04:21:54;;;;;;;25.13;11.70;;;8.00;77.60;;;;;;5003858;28;47808;-68
2022/10/09 04:24:20;;;;;;;29.83;14.23;;;8.00;77.70;;;;;;5000668;28;46386;-68
2022/10/09 04:26:45;;;;;;;20.30;11.77;;;8.00;77.80;;;;;;5002994;28;46462;-68
2022/10/09 04:29:11;;;;;;;21.97;12.33;;;8.00;78.10;;;;;;5001934;28;45834;-68
2022/10/09 04:31:37;;;;;;;27.53;11.97;;;8.10;78.50;;;;;;5003562;28;48746;-68
2022/10/09 04:34:02;;;;;;;22.47;12.33;;;8.10;78.60;;;;;;4999981;28;46368;-68
2022/10/09 04:36:28;;;;;;;27.43;12.40;;;8.10;78.70;;;;;;5002450;28;46372;-67
2022/10/09 04:38:53;;;;;;;27.30;13.00;;;8.10;78.80;;;;;;5003735;28;46314;-68
2022/10/09 04:41:19;;;;;;;27.93;13.93;;;8.10;78.80;;;;;;5002013;28;48052;-67
2022/10/09 04:43:45;;;;;;;31.37;14.07;;;8.00;78.50;;;;;;5001973;28;46071;-67
2022/10/09 04:46:12;;;;;;;22.20;13.07;;;8.10;78.60;;;;;;5001053;28;46484;-67
2022/10/09 04:48:40;;;;;;;29.23;15.00;;;8.10;78.40;;;;;;5004833;28;46384;-67
2022/10/09 04:51:06;;;;;;;26.23;13.77;;;8.10;78.40;;;;;;5001845;28;47012;-68
2022/10/09 04:53:33;;;;;;;30.50;14.43;;;8.10;78.30;;;;;;5003778;28;46630;-67
2022/10/09 04:56:02;;;;;;;27.70;15.07;;;8.10;78.40;;;;;;5001109;28;46647;-67
2022/10/09 04:58:29;;;;;;;31.00;15.23;;;8.10;78.50;;;;;;5002692;28;46604;-67
2022/10/09 05:00:54;;;;;;;38.83;16.10;;;8.10;78.40;;;;;;5001967;28;47243;-68
2022/10/09 05:03:20;;;;;;;27.87;14.90;;;8.10;78.20;;;;;;5002497;28;46375;-68
2022/10/09 05:05:46;;;;;;;26.30;15.77;;;8.10;78.30;;;;;;5002439;28;46255;-68
2022/10/09 05:08:12;;;;;;;34.37;17.00;;;8.10;78.30;;;;;;5000834;28;46616;-68
2022/10/09 05:10:37;;;;;;;31.00;16.80;;;8.00;78.30;;;;;;5002374;28;47060;-68
2022/10/09 05:13:03;;;;;;;29.10;17.13;;;8.00;78.50;;;;;;5000375;28;46220;-67
2022/10/09 05:15:28;;;;;;;29.10;16.63;;;8.00;78.50;;;;;;5002156;28;46540;-68
2022/10/09 05:17:54;;;;;;;36.90;16.33;;;7.90;78.40;;;;;;5004599;28;46344;-67
2022/10/09 05:20:19;;;;;;;29.30;16.17;;;8.00;78.50;;;;;;5002721;28;47068;-68
2022/10/09 05:22:46;;;;;;;33.37;15.77;;;7.90;78.40;;;;;;5002366;28;45803;-67
2022/10/09 05:25:12;;;;;;;29.20;15.00;;;8.00;78.30;;;;;;5001727;28;46365;-68
2022/10/09 05:27:38;;;;;;;27.77;13.87;;;8.00;78.10;;;;;;5002657;28;46504;-67
2022/10/09 05:30:05;;;;;;;33.20;15.73;;;8.00;78.10;;;;;;5002646;28;46496;-66
2022/10/09 05:32:30;;;;;;;36.00;15.60;;;8.00;78.20;;;;;;5000387;28;46432;-67
2022/10/09 05:34:56;;;;;;;32.20;15.37;;;7.90;78.10;;;;;;5000634;28;46544;-67
2022/10/09 05:37:21;;;;;;;38.43;15.97;;;7.90;78.40;;;;;;4999487;28;46668;-68
2022/10/09 05:39:47;;;;;;;32.67;15.90;;;7.80;78.30;;;;;;5001264;28;46916;-67
2022/10/09 05:42:13;;;;;;;23.03;13.73;;;7.80;78.50;;;;;;5000441;28;46377;-67
2022/10/09 05:44:39;;;;;;;24.30;13.27;;;7.80;78.70;;;;;;4998746;28;46570;-68
2022/10/09 05:47:04;;;;;;;32.53;14.10;;;7.80;78.80;;;;;;4998799;28;46527;-67
2022/10/09 05:49:30;;;;;;;44.60;16.00;;;7.80;78.70;;;;;;5001522;28;47032;-67
2022/10/09 05:51:55;;;;;;;30.87;15.13;;;7.80;78.50;;;;;;4999998;28;46362;-67
2022/10/09 05:54:21;;;;;;;30.43;15.07;;;7.80;78.40;;;;;;5001444;28;46428;-67
2022/10/09 05:56:46;;;;;;;31.40;14.77;;;7.80;78.50;;;;;;4999372;28;46403;-67
2022/10/09 05:59:18;;;;;;;26.13;14.40;;;7.90;78.60;;;;;;5002114;28;46607;-68
2022/10/09 06:01:45;;;;;;;35.43;15.03;;;7.90;78.30;;;;;;5000375;28;45804;-68
2022/10/09 06:04:20;;;;;;;31.80;15.00;;;7.90;78.20;;;;;;5000767;28;46354;-68
2022/10/09 06:06:47;;;;;;;33.30;14.90;;;8.00;78.10;;;;;;5000382;28;46635;-68
2022/10/09 06:09:14;;;;;;;27.23;14.27;;;8.00;78.10;;;;;;5001972;28;46505;-66
2022/10/09 06:11:40;;;;;;;33.17;14.97;;;8.00;78.00;;;;;;4997737;28;46409;-67
2022/10/09 06:14:08;;;;;;;32.00;14.40;;;8.10;78.10;;;;;;5002177;28;45782;-67
2022/10/09 06:16:37;;;;;;;30.80;14.30;;;8.20;78.10;;;;;;4994250;28;46314;-67
2022/10/09 06:19:04;;;;;;;34.60;14.50;;;8.20;78.10;;;;;;4997819;28;47172;-67
2022/10/09 06:21:30;;;;;;;30.43;14.97;;;8.30;78.00;;;;;;4993743;28;46865;-67
2022/10/09 06:23:58;;;;;;;24.20;14.50;;;8.30;77.90;;;;;;4997616;28;46227;-68
2022/10/09 06:26:25;;;;;;;23.07;13.37;;;8.40;79.20;;;;;;4995434;28;46280;-67
2022/10/09 06:28:51;;;;;;;25.10;13.73;;;8.40;78.00;;;;;;4995318;28;46529;-67
2022/10/09 06:31:20;;;;;;;19.70;12.07;;;8.50;78.00;;;;;;4996991;28;46599;-67
2022/10/09 06:33:48;;;;;;;26.20;11.53;;;8.50;77.90;;;;;;4995411;28;46385;-67
2022/10/09 06:36:14;;;;;;;18.90;11.20;;;8.60;77.90;;;;;;4996961;28;46385;-68
2022/10/09 06:38:40;;;;;;;20.93;10.60;;;8.60;77.80;;;;;;4994660;28;46491;-68
2022/10/09 06:41:12;;;;;;;19.20;11.33;;;8.60;78.00;;;;;;4992953;28;46727;-68
2022/10/09 06:43:38;;;;;;;25.27;12.13;;;8.70;78.00;;;;;;4996597;28;45831;-68
2022/10/09 06:46:06;;;;;;;24.07;11.53;;;8.70;77.70;;;;;;4994847;28;46634;-68
2022/10/09 06:48:33;;;;;;;16.03;10.07;;;8.80;77.20;;;;;;4995027;28;47238;-68
2022/10/09 06:51:13;;;;;;;18.50;10.17;;;8.80;77.00;;;;;;4994575;28;46482;-68
2022/10/09 06:53:49;;;;;;;14.77;9.03;;;8.90;77.00;;;;;;4996499;28;46395;-68
2022/10/09 06:56:17;;;;;;;22.20;9.53;;;8.90;77.10;;;;;;4998373;28;46131;-68
2022/10/09 06:58:43;;;;;;;13.43;8.30;;;8.80;77.00;;;;;;4993718;28;47571;-66
2022/10/09 07:01:08;;;;;;;18.03;8.57;;;8.90;78.20;;;;;;4994385;28;46553;-67
2022/10/09 07:03:35;;;;;;;12.83;7.50;;;8.90;77.10;;;;;;4996727;28;46458;-68
2022/10/09 07:06:09;;;;;;;16.80;8.60;;;8.90;77.00;;;;;;5003268;28;45870;-68
2022/10/09 07:08:35;;;;;;;14.50;9.10;;;9.00;77.10;;;;;;5002323;28;46474;-68
2022/10/09 07:11:16;;;;;;;22.43;8.50;;;9.00;77.10;;;;;;5001302;28;46421;-68
2022/10/09 07:13:43;;;;;;;15.40;8.73;;;9.00;77.10;;;;;;4997157;28;46459;-68
2022/10/09 07:16:09;;;;;;;16.23;7.67;;;9.10;77.10;;;;;;4996530;28;46438;-68
2022/10/09 07:18:36;;;;;;;22.57;9.03;;;9.10;77.20;;;;;;5001101;28;46485;-68
2022/10/09 07:21:08;;;;;;;15.73;8.93;;;9.20;77.30;;;;;;4997796;28;46266;-68
2022/10/09 07:23:35;;;;;;;16.27;8.47;;;9.30;77.40;;;;;;5000006;28;46363;-69
2022/10/09 07:26:07;;;;;;;13.60;7.13;;;9.30;77.10;;;;;;4995877;28;46385;-67
2022/10/09 07:28:33;;;;;;;14.93;6.97;;;9.40;76.90;;;;;;5001972;28;46688;-67
2022/10/09 07:31:02;;;;;;;16.60;7.50;;;9.40;76.70;;;;;;4999392;28;46448;-68
2022/10/09 07:33:28;;;;;;;15.70;7.63;;;9.40;76.70;;;;;;5000456;28;46252;-67
2022/10/09 07:35:55;;;;;;;13.93;6.90;;;9.50;76.40;;;;;;4998476;28;46240;-67
2022/10/09 07:38:21;;;;;;;18.27;7.40;;;9.60;76.30;;;;;;4999758;28;47042;-67
2022/10/09 07:40:47;;;;;;;13.23;7.57;;;9.60;76.30;;;;;;4998730;28;46681;-66
2022/10/09 07:43:12;;;;;;;10.60;6.53;;;9.50;76.40;;;;;;4999187;28;46284;-70
2022/10/09 07:45:38;;;;;;;13.40;6.93;;;9.50;76.70;;;;;;4998324;28;46624;-68
2022/10/09 07:48:04;;;;;;;13.20;7.60;;;9.60;77.10;;;;;;5001419;28;45946;-68
2022/10/09 07:50:29;;;;;;;17.00;8.37;;;9.70;77.10;;;;;;4999323;28;45776;-68
2022/10/09 07:52:55;;;;;;;14.17;7.53;;;9.70;76.80;;;;;;5005256;28;46227;-68
2022/10/09 07:55:21;;;;;;;12.60;7.53;;;9.80;76.20;;;;;;5004517;28;46593;-68
2022/10/09 07:57:46;;;;;;;19.37;7.33;;;9.90;75.90;;;;;;5002573;28;47079;-68
2022/10/09 08:00:12;;;;;;;14.13;5.97;;;10.00;75.90;;;;;;4996435;28;46575;-71
2022/10/09 08:02:38;;;;;;;17.10;6.30;;;10.10;74.10;;;;;;5000786;28;46390;-68
2022/10/09 08:05:03;;;;;;;15.13;6.87;;;10.20;73.90;;;;;;5002157;28;46369;-68
2022/10/09 08:07:29;;;;;;;16.67;5.57;;;10.20;73.60;;;;;;5004278;28;47099;-67
2022/10/09 08:09:55;;;;;;;19.93;7.27;;;10.30;73.40;;;;;;5000794;28;45785;-68
2022/10/09 08:12:20;;;;;;;13.30;6.93;;;10.30;73.50;;;;;;4997936;28;46453;-67
2022/10/09 08:14:47;;;;;;;8.07;5.63;;;10.40;73.20;;;;;;5003241;28;46447;-68
2022/10/09 08:17:14;;;;;;;11.13;6.30;;;10.50;72.70;;;;;;5004047;28;46043;-69
2022/10/09 08:19:39;;;;;;;10.03;6.80;;;10.70;72.60;;;;;;5002517;28;46497;-69
2022/10/09 08:22:05;;;;;;;12.90;6.87;;;10.70;72.10;;;;;;5003661;28;46568;-69
2022/10/09 08:24:30;;;;;;;12.47;7.10;;;10.70;71.70;;;;;;5004042;28;46328;-70
2022/10/09 08:26:56;;;;;;;15.57;6.87;;;10.80;71.40;;;;;;5015289;28;46290;-69
2022/10/09 08:29:21;;;;;;;15.20;6.33;;;10.80;71.30;;;;;;4999977;28;46402;-69
2022/10/09 08:31:47;;;;;;;15.37;6.50;;;10.80;71.30;;;;;;5000627;28;45776;-68
2022/10/09 08:34:13;;;;;;;12.17;6.40;;;10.90;71.10;;;;;;5000868;28;45992;-67
2022/10/09 08:36:38;;;;;;;11.53;6.20;;;11.00;72.30;;;;;;5007733;28;47068;-68
2022/10/09 08:39:04;;;;;;;10.13;6.40;;;11.10;71.10;;;;;;5001424;28;45764;-69
2022/10/09 08:41:46;;;;;;;11.33;6.00;;;11.30;70.60;;;;;;5001747;28;46449;-68
2022/10/09 08:44:21;;;;;;;11.60;5.63;;;11.50;70.00;;;;;;5001420;28;46759;-68
2022/10/09 08:46:58;;;;;;;13.17;6.17;;;11.60;69.60;;;;;;5001099;28;47253;-68
2022/10/09 08:49:48;;;;;;;8.70;5.50;;;11.60;69.00;;;;;;5000957;28;46527;-68
2022/10/09 08:52:26;;;;;;;9.90;5.33;;;11.60;68.90;;;;;;5000714;28;45791;-68
2022/10/09 08:54:57;;;;;;;10.33;6.60;;;11.70;68.90;;;;;;4999451;28;46350;-66
2022/10/09 08:57:33;;;;;;;16.13;6.40;;;11.80;68.80;;;;;;5001456;28;46461;-66
2022/10/09 08:59:58;;;;;;;17.33;6.50;;;11.90;68.30;;;;;;5003258;28;46364;-68
2022/10/09 09:03:09;;;;;;;12.77;5.83;;;12.10;68.20;;;;;;5000343;28;46177;-67
2022/10/09 09:05:44;;;;;;;9.40;6.30;;;12.20;67.80;;;;;;4996006;28;46689;-67
2022/10/09 09:08:15;;;;;;;11.97;6.03;;;12.20;66.40;;;;;;5000876;28;46115;-67
2022/10/09 09:11:06;;;;;;;10.10;6.00;;;12.30;66.60;;;;;;5002798;28;46285;-68
2022/10/09 09:13:53;;;;;;;8.30;5.47;;;12.40;66.60;;;;;;4995298;28;46442;-67
2022/10/09 09:16:48;;;;;;;12.13;5.90;;;12.40;66.70;;;;;;5001523;28;46299;-66
2022/10/09 09:19:34;;;;;;;11.70;6.13;;;12.50;66.50;;;;;;5001506;28;46483;-67
2022/10/09 09:22:00;;;;;;;11.73;6.00;;;12.60;65.90;;;;;;4995153;28;46426;-67
2022/10/09 09:24:28;;;;;;;14.60;6.10;;;12.60;65.80;;;;;;4999971;28;46237;-70
2022/10/09 09:26:58;;;;;;;13.40;6.83;;;12.60;65.20;;;;;;5002890;28;46417;-68
2022/10/09 09:29:25;;;;;;;12.43;5.80;;;12.60;64.80;;;;;;5001713;28;47005;-68
2022/10/09 09:31:59;;;;;;;11.57;5.20;;;12.70;64.10;;;;;;4998905;28;46356;-68
2022/10/09 09:34:37;;;;;;;10.50;5.77;;;12.70;64.00;;;;;;5000114;28;46456;-68
2022/10/09 09:37:03;;;;;;;10.13;5.93;;;12.80;64.20;;;;;;5001052;28;46484;-67
2022/10/09 09:39:32;;;;;;;8.00;5.23;;;13.00;63.70;;;;;;5001192;28;46378;-65
2022/10/09 09:42:13;;;;;;;15.93;5.87;;;13.10;63.50;;;;;;4998696;28;46505;-68
2022/10/09 09:44:43;;;;;;;8.27;4.30;;;13.10;62.40;;;;;;5001840;28;46391;-70
2022/10/09 09:47:22;;;;;;;10.07;5.30;;;13.20;62.20;;;;;;5000454;28;46477;-69
2022/10/09 09:49:59;;;;;;;8.93;5.60;;;13.30;62.30;;;;;;5000442;28;46377;-68
2022/10/09 09:52:30;;;;;;;14.60;5.40;;;13.30;62.30;;;;;;4998291;28;46448;-68
2022/10/09 09:54:57;;;;;;;9.23;4.57;;;13.30;61.80;;;;;;4997935;28;46373;-67
2022/10/09 09:57:36;;;;;;;12.53;5.57;;;13.40;61.40;;;;;;5002483;28;46335;-68
2022/10/09 10:00:13;;;;;;;11.50;5.90;;;13.40;61.00;;;;;;5002864;28;46397;-67
2022/10/09 10:02:39;;;;;;;8.60;5.23;;;13.40;60.60;;;;;;4997863;28;46476;-67
2022/10/09 10:05:16;;;;;;;8.47;5.10;;;13.40;60.30;;;;;;5000097;28;46348;-67
2022/10/09 10:07:42;;;;;;;11.90;5.10;;;13.30;60.20;;;;;;5000983;28;46311;-68
2022/10/09 10:10:20;;;;;;;9.40;4.70;;;13.40;60.40;;;;;;4999058;28;46343;-67
2022/10/09 10:12:51;;;;;;;7.60;4.40;;;13.60;60.20;;;;;;4997820;28;46419;-68
2022/10/09 10:15:17;;;;;;;9.33;4.63;;;13.50;60.10;;;;;;4998300;28;46315;-68
2022/10/09 10:17:43;;;;;;;8.57;5.60;;;13.60;59.10;;;;;;5001476;28;46291;-69
2022/10/09 10:20:15;;;;;;;7.33;5.40;;;13.60;59.30;;;;;;5001599;28;46501;-69
2022/10/09 10:22:40;;;;;;;8.57;5.50;;;13.80;58.70;;;;;;4997646;28;46541;-69
2022/10/09 10:25:16;;;;;;;13.00;7.07;;;13.80;58.20;;;;;;5000037;28;46279;-69
2022/10/09 10:27:43;;;;;;;14.53;6.20;;;13.90;58.00;;;;;;5000623;28;46377;-69
2022/10/09 10:30:12;;;;;;;12.23;6.07;;;13.80;57.50;;;;;;5001287;28;46134;-68
2022/10/09 10:33:04;;;;;;;21.10;7.43;;;13.90;57.50;;;;;;4997041;28;47137;-68
2022/10/09 10:35:37;;;;;;;19.97;7.50;;;14.10;58.60;;;;;;4998886;28;45967;-68
2022/10/09 10:38:23;;;;;;;11.90;6.67;;;14.10;57.10;;;;;;4999373;28;46362;-68
2022/10/09 10:41:01;;;;;;;13.87;7.20;;;14.00;56.90;;;;;;4998074;28;46429;-68
2022/10/09 10:44:06;;;;;;;11.17;6.43;;;14.10;56.80;;;;;;4997343;28;46457;-68
2022/10/09 10:46:40;;;;;;;15.33;6.70;;;14.10;56.70;;;;;;5001292;28;46635;-68
2022/10/09 10:49:10;;;;;;;10.77;6.70;;;14.20;56.80;;;;;;4998928;28;46971;-67
2022/10/09 10:51:46;;;;;;;14.80;6.67;;;14.20;56.30;;;;;;4995695;28;47318;-68
2022/10/09 10:54:17;;;;;;;13.00;6.37;;;14.20;56.10;;;;;;4999283;28;46339;-68
2022/10/09 10:56:51;;;;;;;12.50;7.20;;;14.20;55.60;;;;;;4999826;28;46359;-68
2022/10/09 10:59:27;;;;;;;14.63;7.10;;;14.20;55.50;;;;;;5000214;28;46357;-68
2022/10/09 11:02:23;;;;;;;15.00;7.07;;;14.20;55.50;;;;;;4996348;28;46695;-68
2022/10/09 11:05:21;;;;;;;10.83;6.33;;;14.30;55.60;;;;;;4998160;28;46538;-67
2022/10/09 11:07:50;;;;;;;13.93;6.80;;;14.30;55.60;;;;;;4999686;28;46393;-68
2022/10/09 11:10:54;;;;;;;16.60;6.40;;;14.40;55.70;;;;;;4999991;28;46434;-68
2022/10/09 11:13:31;;;;;;;10.17;6.40;;;14.60;55.90;;;;;;4994998;28;46107;-68
2022/10/09 11:16:34;;;;;;;11.23;5.90;;;14.70;57.00;;;;;;4999355;28;46398;-68
2022/10/09 11:19:08;;;;;;;13.23;6.50;;;14.60;55.20;;;;;;5000244;28;46330;-68
2022/10/09 11:22:11;;;;;;;11.63;6.10;;;14.60;55.00;;;;;;4999206;28;46492;-68
2022/10/09 11:25:04;;;;;;;10.07;6.47;;;14.60;54.90;;;;;;4997576;28;46379;-68
2022/10/09 11:27:47;;;;;;;15.70;5.40;;;14.70;54.90;;;;;;4999906;28;46307;-69
2022/10/09 11:30:16;;;;;;;19.10;5.97;;;14.70;54.30;;;;;;5000811;28;46454;-69
2022/10/09 11:33:02;;;;;;;10.63;6.20;;;14.90;54.60;;;;;;4999114;28;46545;-68
2022/10/09 11:35:46;;;;;;;9.50;4.70;;;14.90;54.00;;;;;;5002318;28;46654;-68
2022/10/09 11:38:30;;;;;;;10.53;5.70;;;14.90;53.10;;;;;;5001956;28;46327;-69
2022/10/09 11:40:57;;;;;;;10.43;4.87;;;15.10;53.30;;;;;;5003086;28;46306;-66
2022/10/09 11:43:25;;;;;;;10.43;4.47;;;15.30;53.00;;;;;;5000664;28;46540;-68
2022/10/09 11:46:24;;;;;;;11.33;6.23;;;15.20;52.70;;;;;;5000064;28;47285;-68
2022/10/09 11:49:02;;;;;;;9.53;4.80;;;15.30;52.40;;;;;;5001092;28;46383;-68
2022/10/09 11:51:46;;;;;;;11.13;5.60;;;15.30;52.20;;;;;;5000088;28;46576;-68
2022/10/09 11:54:17;;;;;;;9.40;4.93;;;15.30;51.80;;;;;;4999993;28;46764;-68
2022/10/09 11:56:53;;;;;;;14.67;5.23;;;15.20;51.70;;;;;;5003976;28;46442;-68
2022/10/09 11:59:28;;;;;;;9.80;4.87;;;15.20;52.00;;;;;;4993534;28;47001;-67
2022/10/09 12:01:55;;;;;;;7.83;4.70;;;15.30;51.90;;;;;;4997012;28;46468;-68
2022/10/09 12:04:20;;;;;;;8.50;5.33;;;15.30;51.60;;;;;;4998662;28;46365;-67
2022/10/09 12:06:52;;;;;;;8.77;5.40;;;15.40;51.30;;;;;;5003278;28;46437;-68
2022/10/09 12:09:30;;;;;;;12.73;6.50;;;15.60;51.20;;;;;;5002879;28;46355;-68
2022/10/09 12:12:06;;;;;;;10.00;5.10;;;15.60;50.80;;;;;;4997856;28;46390;-68
2022/10/09 12:14:32;;;;;;;14.10;6.90;;;15.50;50.50;;;;;;4999754;28;46390;-68
2022/10/09 12:16:59;;;;;;;9.47;4.93;;;15.60;50.50;;;;;;5003021;28;46360;-68
2022/10/09 12:19:52;;;;;;;12.40;6.77;;;15.60;49.20;;;;;;5001383;28;46754;-69
2022/10/09 12:22:27;;;;;;;14.63;5.87;;;15.70;49.20;;;;;;4998072;28;46334;-68
2022/10/09 12:24:56;;;;;;;14.67;5.77;;;15.70;48.90;;;;;;5000088;28;45870;-67
2022/10/09 12:27:35;;;;;;;7.67;4.40;;;15.70;49.10;;;;;;5002404;28;46690;-67
2022/10/09 12:30:14;;;;;;;9.70;4.30;;;15.70;48.90;;;;;;5003045;28;46303;-68
2022/10/09 12:32:49;;;;;;;14.83;4.87;;;15.80;48.50;;;;;;4999890;28;46419;-68
2022/10/09 12:35:27;;;;;;;9.17;4.47;;;15.80;48.60;;;;;;4999051;28;46421;-68
2022/10/09 12:37:53;;;;;;;14.43;4.60;;;15.90;48.10;;;;;;5000974;28;46463;-68
2022/10/09 12:40:30;;;;;;;7.53;5.17;;;15.90;47.20;;;;;;5001041;28;46514;-67
2022/10/09 12:42:59;;;;;;;10.73;3.63;;;15.80;47.60;;;;;;5003256;28;46374;-67
2022/10/09 12:45:29;;;;;;;8.67;4.47;;;15.80;47.20;;;;;;4998222;28;46388;-67
2022/10/09 12:47:56;;;;;;;7.73;4.30;;;15.90;47.60;;;;;;5001819;28;46578;-67
2022/10/09 12:50:25;;;;;;;13.13;6.37;;;15.80;47.00;;;;;;4998354;28;47543;-66
2022/10/09 12:52:53;;;;;;;8.03;4.37;;;15.60;47.10;;;;;;5001326;28;46507;-65
2022/10/09 12:55:59;;;;;;;18.57;10.40;;;15.50;47.00;;;;;;5000643;28;46393;-65
2022/10/09 12:58:31;;;;;;;14.43;10.90;;;15.40;47.20;;;;;;5002126;28;46642;-65